Time;durP1;ratioP1;P1;durP2;ratioP2;P2;SDS_P1;SDS_P2;PMS_P1;PMS_P2;Temp;Humidity;BMP_temperature;BMP_pressure;BME280_temperature;BME280_humidity;BME280_pressure;Samples;Min_cycle;Max_cycle;Signal;HPM_P1;HPM_P2
2022/08/14 00:00:23;;;;;;;5.85;4.90;;;23.80;46.30;;;;;;5036685;28;20212;-85
2022/08/14 00:02:49;;;;;;;5.38;4.90;;;23.90;46.00;;;;;;5041099;28;20216;-85
2022/08/14 00:05:18;;;;;;;4.65;4.35;;;24.00;44.80;;;;;;5042349;28;20208;-86
2022/08/14 00:07:45;;;;;;;4.85;4.45;;;24.10;44.90;;;;;;5040531;28;20267;-87
2022/08/14 00:10:14;;;;;;;5.05;4.75;;;24.10;44.80;;;;;;5044737;28;20208;-85
2022/08/14 00:12:44;;;;;;;5.32;4.93;;;24.10;45.40;;;;;;5036760;28;20189;-85
2022/08/14 00:15:17;;;;;;;5.30;4.88;;;24.10;46.00;;;;;;5034735;28;20189;-84
2022/08/14 00:17:44;;;;;;;5.53;5.05;;;24.10;45.70;;;;;;5040722;28;20200;-87
2022/08/14 00:20:11;;;;;;;5.30;4.90;;;24.10;45.50;;;;;;5040389;28;20245;-88
2022/08/14 00:22:37;;;;;;;5.18;4.88;;;23.90;45.60;;;;;;5032650;28;20188;-86
2022/08/14 00:25:05;;;;;;;5.03;4.72;;;23.70;46.80;;;;;;5041755;28;20245;-85
2022/08/14 00:27:31;;;;;;;6.45;4.93;;;23.50;47.80;;;;;;5042628;28;20196;-86
2022/08/14 00:29:57;;;;;;;5.43;4.93;;;23.20;48.10;;;;;;5036807;28;20204;-85
2022/08/14 00:32:23;;;;;;;5.32;4.82;;;23.30;47.90;;;;;;5043504;28;20208;-87
2022/08/14 00:34:48;;;;;;;5.82;5.40;;;23.40;47.60;;;;;;5030617;28;20240;-88
2022/08/14 00:37:14;;;;;;;5.20;4.90;;;23.50;47.60;;;;;;5040772;28;20197;-86
2022/08/14 00:39:40;;;;;;;5.28;4.97;;;23.40;47.70;;;;;;5036438;28;20221;-84
2022/08/14 00:42:06;;;;;;;5.00;4.68;;;23.40;48.00;;;;;;5031489;28;20186;-86
2022/08/14 00:44:32;;;;;;;5.32;5.03;;;23.40;47.50;;;;;;5036726;28;20192;-86
2022/08/14 00:46:58;;;;;;;5.25;4.85;;;23.40;47.10;;;;;;5038384;28;20184;-86
2022/08/14 00:49:27;;;;;;;5.32;4.93;;;23.40;47.40;;;;;;5042609;28;20293;-86
2022/08/14 00:51:53;;;;;;;6.40;5.00;;;23.30;48.30;;;;;;5041889;28;20200;-87
2022/08/14 00:54:18;;;;;;;5.57;4.63;;;23.20;48.40;;;;;;5033056;28;20193;-85
2022/08/14 00:56:44;;;;;;;5.57;5.18;;;23.00;48.70;;;;;;5035213;28;20197;-87
2022/08/14 00:59:10;;;;;;;5.10;4.68;;;23.10;48.40;;;;;;5042157;28;20220;-85
2022/08/14 01:01:37;;;;;;;5.25;4.85;;;23.20;47.90;;;;;;5034107;28;20189;-85
2022/08/14 01:04:03;;;;;;;5.93;4.70;;;23.30;47.50;;;;;;5015507;28;20544;-86
2022/08/14 01:06:31;;;;;;;5.38;4.95;;;23.30;47.30;;;;;;5035214;28;20204;-85
2022/08/14 01:08:59;;;;;;;4.97;4.57;;;23.30;47.80;;;;;;5037527;28;20205;-86
2022/08/14 01:11:26;;;;;;;4.70;4.43;;;23.30;47.90;;;;;;5039087;28;20189;-85
2022/08/14 01:13:58;;;;;;;4.93;4.53;;;22.90;49.30;;;;;;5040576;28;20242;-89
2022/08/14 01:16:23;;;;;;;4.90;4.60;;;22.70;50.20;;;;;;5041775;28;20268;-85
2022/08/14 01:21:38;;;;;;;5.20;4.70;;;22.80;49.60;;;;;;5034107;28;20223;-85
2022/08/14 01:24:06;;;;;;;4.80;4.50;;;22.90;49.30;;;;;;5034613;28;20487;-84
2022/08/14 01:26:34;;;;;;;5.20;4.70;;;22.90;49.00;;;;;;5034556;28;20581;-87
2022/08/14 01:29:00;;;;;;;4.95;4.55;;;22.90;49.20;;;;;;5040874;28;20217;-86
2022/08/14 01:31:30;;;;;;;4.80;4.50;;;22.80;49.50;;;;;;5036829;28;20181;-88
2022/08/14 01:33:59;;;;;;;5.47;5.07;;;22.80;49.50;;;;;;5033267;28;20285;-87
2022/08/14 01:36:27;;;;;;;6.90;4.90;;;22.90;49.50;;;;;;5038646;28;20186;-85
2022/08/14 01:38:57;;;;;;;5.20;4.85;;;22.80;49.50;;;;;;5036314;28;20299;-86
2022/08/14 01:41:25;;;;;;;5.50;5.03;;;22.80;49.80;;;;;;5031432;28;20185;-87
2022/08/14 01:44:04;;;;;;;4.80;4.50;;;22.80;50.20;;;;;;5036728;28;20241;-84
2022/08/14 01:46:34;;;;;;;5.07;4.70;;;22.80;49.80;;;;;;5034318;28;20192;-86
2022/08/14 01:49:02;;;;;;;5.15;4.75;;;22.70;49.90;;;;;;5041618;28;20684;-85
2022/08/14 01:51:29;;;;;;;4.90;4.50;;;22.80;49.70;;;;;;5035017;28;20200;-85
2022/08/14 01:53:59;;;;;;;4.85;4.55;;;22.70;50.00;;;;;;5031695;28;20250;-85
2022/08/14 01:56:39;;;;;;;4.90;4.60;;;22.50;49.90;;;;;;5028995;28;20192;-86
2022/08/14 01:59:20;;;;;;;4.40;4.18;;;22.30;51.70;;;;;;5033085;28;20212;-87
2022/08/14 02:01:51;;;;;;;4.80;4.40;;;22.20;50.50;;;;;;5040109;28;20692;-84
2022/08/14 02:04:19;;;;;;;4.75;4.45;;;22.10;50.60;;;;;;5036744;28;20195;-85
2022/08/14 02:06:46;;;;;;;6.07;4.82;;;22.10;50.30;;;;;;5034718;28;20185;-86
2022/08/14 02:09:15;;;;;;;5.22;4.55;;;22.10;50.10;;;;;;5039084;28;20208;-85
2022/08/14 02:11:41;;;;;;;5.03;4.70;;;22.00;50.40;;;;;;5032706;28;20192;-86
2022/08/14 02:14:09;;;;;;;4.57;4.28;;;22.10;50.50;;;;;;5038508;28;20219;-85
2022/08/14 02:16:40;;;;;;;4.78;4.47;;;22.00;50.10;;;;;;5036495;28;20239;-85
2022/08/14 02:19:10;;;;;;;4.72;4.43;;;21.90;50.10;;;;;;5036113;28;20553;-88
2022/08/14 02:21:36;;;;;;;5.20;4.80;;;22.00;50.30;;;;;;5030813;28;20722;-84
2022/08/14 02:24:04;;;;;;;5.15;4.75;;;22.00;50.50;;;;;;5022186;28;20188;-86
2022/08/14 02:26:36;;;;;;;5.10;4.80;;;22.00;50.60;;;;;;5031295;28;20228;-87
2022/08/14 02:29:13;;;;;;;4.88;4.57;;;22.00;50.60;;;;;;5038993;28;20269;-87
2022/08/14 02:31:42;;;;;;;4.97;4.68;;;21.90;50.90;;;;;;5052885;28;20204;-91
2022/08/14 02:34:27;;;;;;;5.32;4.90;;;21.80;51.10;;;;;;5060516;28;20278;-86
2022/08/14 02:36:57;;;;;;;4.53;4.22;;;21.70;51.20;;;;;;5036081;28;20571;-85
2022/08/14 02:39:24;;;;;;;4.97;4.57;;;21.70;51.50;;;;;;5038148;28;20571;-84
2022/08/14 02:41:51;;;;;;;4.85;4.45;;;21.60;51.40;;;;;;5039110;28;20189;-85
2022/08/14 02:44:21;;;;;;;4.65;4.40;;;21.60;51.50;;;;;;5033354;28;20281;-88
2022/08/14 02:46:49;;;;;;;4.85;4.50;;;21.60;51.10;;;;;;5036118;28;20203;-87
2022/08/14 02:49:14;;;;;;;5.00;4.60;;;21.70;51.50;;;;;;5042646;28;20710;-88
2022/08/14 02:51:40;;;;;;;4.97;4.68;;;21.70;51.20;;;;;;5043188;28;20204;-85
2022/08/14 02:54:08;;;;;;;4.80;4.40;;;21.60;51.40;;;;;;5032556;28;20203;-87
2022/08/14 02:56:37;;;;;;;4.60;4.30;;;21.60;51.30;;;;;;5026781;28;20185;-85
2022/08/14 02:59:05;;;;;;;4.90;4.50;;;21.60;51.50;;;;;;5034434;28;20197;-85
2022/08/14 03:01:31;;;;;;;4.93;4.63;;;21.50;51.80;;;;;;5038512;28;20181;-89
2022/08/14 03:03:58;;;;;;;4.65;4.35;;;21.40;52.20;;;;;;5032349;28;20187;-88
2022/08/14 03:06:24;;;;;;;5.05;4.68;;;21.20;53.20;;;;;;5049332;28;20173;-87
2022/08/14 03:08:52;;;;;;;5.00;4.60;;;21.10;53.10;;;;;;5049969;28;20278;-86
2022/08/14 03:11:18;;;;;;;4.97;4.55;;;21.10;53.60;;;;;;5045922;28;20204;-87
2022/08/14 03:13:52;;;;;;;6.88;4.80;;;21.10;53.60;;;;;;5034740;28;20211;-85
2022/08/14 03:16:20;;;;;;;5.43;4.50;;;21.10;53.00;;;;;;5047151;28;20195;-87
2022/08/14 03:18:48;;;;;;;5.82;4.68;;;21.20;52.90;;;;;;5049184;28;20253;-85
2022/08/14 03:21:16;;;;;;;5.07;4.65;;;21.30;52.30;;;;;;5045383;28;20195;-85
2022/08/14 03:23:44;;;;;;;4.70;4.45;;;21.20;52.80;;;;;;5037639;28;20185;-87
2022/08/14 03:26:12;;;;;;;4.47;4.18;;;21.20;53.30;;;;;;5048714;28;20244;-88
2022/08/14 03:28:40;;;;;;;5.43;4.97;;;21.10;53.50;;;;;;5044702;28;20233;-85
2022/08/14 03:31:08;;;;;;;5.45;5.05;;;21.10;53.90;;;;;;5038193;28;20200;-89
2022/08/14 03:33:36;;;;;;;4.57;4.28;;;21.10;53.90;;;;;;5046862;28;20203;-86
2022/08/14 03:36:11;;;;;;;5.07;4.75;;;21.00;54.10;;;;;;5046868;28;20254;-86
2022/08/14 03:38:41;;;;;;;4.75;4.45;;;21.10;54.20;;;;;;5041406;28;20198;-86
2022/08/14 03:41:15;;;;;;;4.95;4.55;;;21.10;53.90;;;;;;5035885;28;20209;-87
2022/08/14 03:43:41;;;;;;;4.93;4.57;;;21.10;54.10;;;;;;5044806;28;20180;-85
2022/08/14 03:46:10;;;;;;;5.07;4.60;;;21.00;54.30;;;;;;5045050;28;20187;-86
2022/08/14 03:48:38;;;;;;;4.80;4.50;;;21.10;54.10;;;;;;5048523;28;20671;-85
2022/08/14 03:51:07;;;;;;;5.47;5.07;;;21.10;54.00;;;;;;5046222;28;20208;-85
2022/08/14 03:53:40;;;;;;;4.88;4.57;;;21.10;54.30;;;;;;5037531;28;20203;-87
2022/08/14 03:56:13;;;;;;;4.65;4.35;;;21.00;54.70;;;;;;5048088;28;20182;-84
2022/08/14 03:58:44;;;;;;;5.18;4.82;;;21.00;54.60;;;;;;5031911;28;20607;-88
2022/08/14 04:01:12;;;;;;;4.85;4.45;;;21.10;54.60;;;;;;5045990;28;20219;-84
2022/08/14 04:03:38;;;;;;;5.35;4.95;;;21.10;54.40;;;;;;5031490;28;20187;-85
2022/08/14 04:06:07;;;;;;;5.30;4.90;;;21.00;55.40;;;;;;5048118;28;20181;-86
2022/08/14 04:08:37;;;;;;;5.38;4.97;;;20.70;57.40;;;;;;5051652;28;20188;-88
2022/08/14 04:11:03;;;;;;;5.63;4.88;;;20.70;57.10;;;;;;5040127;28;20526;-86
2022/08/14 04:13:30;;;;;;;4.70;4.40;;;20.60;57.20;;;;;;5040928;28;20187;-87
2022/08/14 04:15:56;;;;;;;4.70;4.40;;;20.60;56.30;;;;;;5030192;28;20253;-86
2022/08/14 04:18:22;;;;;;;5.10;4.80;;;20.70;56.00;;;;;;5044506;28;20213;-85
2022/08/14 04:20:48;;;;;;;5.25;4.50;;;20.80;56.30;;;;;;5042805;28;20212;-86
2022/08/14 04:23:15;;;;;;;5.00;4.60;;;20.80;56.30;;;;;;5029149;28;20643;-89
2022/08/14 04:25:41;;;;;;;4.65;4.35;;;20.80;56.40;;;;;;5044822;28;20191;-89
2022/08/14 04:28:10;;;;;;;4.68;4.38;;;20.80;56.80;;;;;;5045344;28;20221;-86
2022/08/14 04:30:38;;;;;;;4.93;4.63;;;20.70;57.20;;;;;;5044565;28;20214;-85
2022/08/14 04:33:07;;;;;;;5.00;4.60;;;20.70;57.20;;;;;;5042385;28;20187;-86
2022/08/14 04:35:34;;;;;;;5.10;4.80;;;20.70;57.00;;;;;;5044775;28;20187;-86
2022/08/14 04:43:38;;;;;;;6.10;5.57;;;20.70;57.50;;;;;;5041350;28;20210;-86
2022/08/14 04:46:16;;;;;;;6.30;5.68;;;20.60;57.10;;;;;;5038765;28;20182;-88
2022/08/14 04:48:42;;;;;;;6.60;5.35;;;20.80;56.30;;;;;;5025771;28;20202;-87
2022/08/14 04:51:11;;;;;;;5.35;4.90;;;20.70;56.30;;;;;;5025810;28;20603;-87
2022/08/14 04:53:42;;;;;;;5.68;5.13;;;20.70;56.00;;;;;;5043833;28;20205;-90
2022/08/14 04:56:08;;;;;;;5.90;5.30;;;20.80;55.80;;;;;;5044748;28;20185;-85
2022/08/14 04:58:35;;;;;;;5.85;5.32;;;20.80;55.60;;;;;;5040751;28;20183;-87
2022/08/14 05:01:05;;;;;;;5.25;4.82;;;20.80;55.60;;;;;;5044205;28;20260;-91
2022/08/14 05:03:32;;;;;;;6.43;5.93;;;20.70;56.10;;;;;;5039184;28;20180;-87
2022/08/14 05:06:00;;;;;;;5.70;5.15;;;20.80;55.70;;;;;;5043987;28;20275;-85
2022/08/14 05:08:28;;;;;;;6.15;5.65;;;20.80;55.50;;;;;;5033689;28;20187;-86
2022/08/14 05:10:55;;;;;;;9.05;5.07;;;20.90;55.70;;;;;;5038312;28;20188;-85
2022/08/14 05:13:27;;;;;;;7.72;5.53;;;20.90;55.20;;;;;;5024176;28;20195;-86
2022/08/14 05:15:54;;;;;;;6.07;4.82;;;20.90;55.80;;;;;;5027242;28;20193;-86
2022/08/14 05:18:23;;;;;;;7.57;5.10;;;20.80;56.00;;;;;;5043736;28;20196;-86
2022/08/14 05:20:51;;;;;;;5.57;5.18;;;20.80;56.00;;;;;;5043631;28;20199;-91
2022/08/14 05:23:20;;;;;;;5.75;5.20;;;20.80;56.60;;;;;;5028521;28;20199;-91
2022/08/14 05:25:47;;;;;;;5.25;4.80;;;20.60;57.70;;;;;;5044516;28;20188;-87
2022/08/14 05:28:17;;;;;;;6.13;5.63;;;20.60;58.30;;;;;;5038820;28;20251;-86
2022/08/14 05:30:45;;;;;;;6.03;5.45;;;20.60;59.30;;;;;;5036416;28;20206;-86
2022/08/14 05:33:12;;;;;;;5.00;4.70;;;20.60;59.80;;;;;;5025352;28;20183;-86
2022/08/14 05:35:38;;;;;;;5.30;4.82;;;20.50;60.30;;;;;;5041321;28;20552;-86
2022/08/14 05:38:09;;;;;;;5.68;5.30;;;20.50;59.10;;;;;;5031917;28;20196;-86
2022/08/14 05:40:35;;;;;;;5.15;4.85;;;20.70;58.80;;;;;;5028909;28;20678;-87
2022/08/14 05:43:02;;;;;;;5.18;4.80;;;20.80;57.20;;;;;;5024937;28;20728;-87
2022/08/14 05:45:27;;;;;;;5.32;4.82;;;20.80;55.80;;;;;;5042976;28;20220;-87
2022/08/14 05:47:53;;;;;;;5.35;5.05;;;20.70;56.60;;;;;;5045026;28;20182;-88
2022/08/14 05:50:19;;;;;;;6.97;4.82;;;20.70;56.60;;;;;;5043028;28;20233;-86
2022/08/14 05:52:46;;;;;;;5.40;5.00;;;20.80;54.40;;;;;;5038472;28;20506;-86
2022/08/14 05:55:13;;;;;;;5.57;5.05;;;20.90;54.10;;;;;;5033515;28;20194;-85
2022/08/14 05:57:49;;;;;;;5.72;5.22;;;20.80;53.80;;;;;;5043219;28;20169;-85
2022/08/14 06:00:17;;;;;;;5.25;4.95;;;20.90;54.60;;;;;;5028984;28;20240;-88
2022/08/14 06:02:43;;;;;;;6.25;5.18;;;20.90;54.00;;;;;;5045397;28;20175;-88
2022/08/14 06:05:09;;;;;;;5.18;4.78;;;21.00;53.90;;;;;;5033125;28;20194;-84
2022/08/14 06:07:36;;;;;;;5.60;5.20;;;21.20;53.50;;;;;;5048003;28;20187;-90
2022/08/14 06:10:04;;;;;;;5.75;5.32;;;21.30;52.60;;;;;;5045380;28;20223;-91
2022/08/14 06:12:29;;;;;;;5.85;5.13;;;21.40;52.60;;;;;;5026125;28;20193;-84
2022/08/14 06:14:55;;;;;;;6.03;5.53;;;21.40;52.20;;;;;;5039055;28;20188;-85
2022/08/14 06:17:21;;;;;;;5.47;5.13;;;21.40;51.80;;;;;;5035295;28;20216;-84
2022/08/14 06:19:46;;;;;;;5.13;4.75;;;21.40;52.00;;;;;;5034718;28;20228;-86
2022/08/14 06:22:12;;;;;;;5.63;5.22;;;21.50;52.10;;;;;;5036008;28;20188;-86
2022/08/14 06:24:38;;;;;;;5.53;5.03;;;21.50;51.50;;;;;;5037818;28;20242;-85
2022/08/14 06:27:04;;;;;;;5.47;5.05;;;21.70;51.40;;;;;;5055652;28;20715;-84
2022/08/14 06:29:30;;;;;;;5.25;4.90;;;21.60;51.10;;;;;;5040645;28;20223;-87
2022/08/14 06:31:57;;;;;;;5.25;4.93;;;21.70;51.20;;;;;;5031559;28;20681;-87
2022/08/14 06:34:23;;;;;;;5.50;5.10;;;21.80;51.20;;;;;;5032399;28;20271;-86
2022/08/14 06:36:48;;;;;;;5.95;5.53;;;21.90;50.80;;;;;;5033406;28;20215;-87
2022/08/14 06:39:14;;;;;;;5.65;5.15;;;21.90;50.10;;;;;;5035445;28;20256;-85
2022/08/14 06:41:41;;;;;;;5.50;5.20;;;22.00;50.20;;;;;;5033016;28;20199;-86
2022/08/14 06:44:07;;;;;;;6.00;5.53;;;22.00;50.70;;;;;;5034235;28;20243;-85
2022/08/14 06:46:33;;;;;;;5.82;5.28;;;22.00;50.20;;;;;;5033001;28;20180;-84
2022/08/14 06:48:59;;;;;;;5.70;5.30;;;22.10;50.50;;;;;;5042145;28;20243;-86
2022/08/14 06:51:25;;;;;;;5.80;5.40;;;22.20;50.50;;;;;;5036020;28;20204;-84
2022/08/14 06:53:50;;;;;;;5.30;4.90;;;22.30;50.20;;;;;;5038954;28;20195;-87
2022/08/14 06:56:16;;;;;;;5.50;5.20;;;22.20;51.00;;;;;;5035373;28;20210;-86
2022/08/14 06:58:42;;;;;;;5.75;5.22;;;22.30;51.40;;;;;;5017258;28;20585;-85
2022/08/14 07:06:36;;;;;;;6.00;5.50;;;22.40;49.20;;;;;;5040732;28;20198;-86
2022/08/14 07:09:03;;;;;;;5.65;5.25;;;22.40;49.10;;;;;;5033646;28;20208;-85
2022/08/14 07:11:29;;;;;;;6.00;5.40;;;22.50;49.00;;;;;;5041089;28;20208;-86
2022/08/14 07:13:55;;;;;;;5.63;5.20;;;22.60;49.00;;;;;;5032562;28;20192;-85
2022/08/14 07:16:21;;;;;;;6.28;5.88;;;22.80;49.30;;;;;;5039549;28;20644;-85
2022/08/14 07:18:47;;;;;;;6.03;5.63;;;22.80;49.30;;;;;;5035145;28;20254;-85
2022/08/14 07:21:14;;;;;;;6.55;5.93;;;22.90;48.90;;;;;;5034371;28;20220;-86
2022/08/14 07:23:40;;;;;;;5.80;5.40;;;23.10;48.40;;;;;;5036064;28;20456;-86
2022/08/14 07:26:06;;;;;;;6.10;5.70;;;23.10;48.40;;;;;;5041955;28;20199;-87
2022/08/14 07:28:35;;;;;;;7.00;5.72;;;23.20;48.10;;;;;;5038006;28;20269;-85
2022/08/14 07:31:03;;;;;;;6.53;6.13;;;23.30;48.50;;;;;;5045537;28;20201;-86
2022/08/14 07:33:48;;;;;;;6.25;5.75;;;23.30;49.40;;;;;;5036975;28;20209;-87
2022/08/14 07:36:15;;;;;;;6.25;5.85;;;23.40;48.60;;;;;;5038984;28;20188;-87
2022/08/14 07:38:41;;;;;;;6.13;5.72;;;23.50;48.10;;;;;;5036106;28;20212;-85
2022/08/14 07:41:09;;;;;;;6.30;5.70;;;23.60;46.80;;;;;;5042280;28;20217;-85
2022/08/14 07:43:35;;;;;;;10.15;6.63;;;23.90;47.20;;;;;;5040214;28;20181;-87
2022/08/14 07:46:02;;;;;;;6.68;6.07;;;23.90;47.00;;;;;;5035528;28;20178;-86
2022/08/14 07:48:27;;;;;;;7.35;5.80;;;24.00;47.30;;;;;;5029825;28;20193;-85
2022/08/14 07:50:53;;;;;;;6.40;5.90;;;24.20;47.20;;;;;;5035141;28;20213;-85
2022/08/14 07:53:20;;;;;;;6.38;5.97;;;24.30;47.00;;;;;;5040936;28;20191;-85
2022/08/14 07:55:46;;;;;;;7.43;5.80;;;24.50;46.00;;;;;;5039369;28;20269;-84
2022/08/14 07:58:13;;;;;;;6.13;5.57;;;24.70;46.00;;;;;;5039705;28;20190;-85
2022/08/14 08:00:39;;;;;;;7.35;6.43;;;24.80;45.30;;;;;;5045749;28;20241;-86
2022/08/14 08:03:09;;;;;;;6.63;5.72;;;25.10;44.70;;;;;;5044880;28;20196;-87
2022/08/14 08:05:37;;;;;;;5.80;5.32;;;25.10;44.70;;;;;;5038207;28;20216;-87
2022/08/14 08:08:04;;;;;;;6.05;5.38;;;25.30;42.20;;;;;;5045811;28;20327;-84
2022/08/14 08:10:30;;;;;;;5.85;5.43;;;25.40;41.90;;;;;;5050981;28;20201;-84
2022/08/14 08:12:57;;;;;;;5.60;5.20;;;25.40;42.10;;;;;;5052366;28;20205;-88
2022/08/14 08:15:24;;;;;;;5.97;5.57;;;25.40;41.00;;;;;;5028221;28;20669;-85
2022/08/14 08:17:50;;;;;;;6.03;5.55;;;25.60;40.70;;;;;;5066539;28;20348;-85
2022/08/14 08:20:19;;;;;;;5.45;5.05;;;25.70;40.10;;;;;;5045119;28;20213;-86
2022/08/14 08:22:46;;;;;;;5.53;5.03;;;25.70;39.70;;;;;;5049726;28;20181;-86
2022/08/14 08:25:13;;;;;;;5.53;5.22;;;25.80;40.80;;;;;;5043977;28;20204;-86
2022/08/14 08:27:41;;;;;;;5.47;5.07;;;25.90;39.40;;;;;;5049596;28;20241;-87
2022/08/14 08:30:09;;;;;;;5.50;5.10;;;26.10;40.00;;;;;;5050489;28;20259;-86
2022/08/14 08:32:42;;;;;;;5.40;5.00;;;26.20;38.50;;;;;;5040651;28;20200;-86
2022/08/14 08:35:24;;;;;;;4.90;4.60;;;26.50;38.20;;;;;;5039524;28;20197;-87
2022/08/14 08:37:52;;;;;;;5.13;4.82;;;26.60;36.80;;;;;;5047803;28;20215;-85
2022/08/14 08:40:36;;;;;;;5.60;5.20;;;26.70;36.10;;;;;;5047091;28;20680;-89
2022/08/14 08:43:07;;;;;;;5.10;4.70;;;26.90;36.10;;;;;;5039151;28;20182;-89
2022/08/14 08:45:35;;;;;;;5.40;5.00;;;26.90;36.40;;;;;;5026240;28;20170;-86
2022/08/14 08:48:02;;;;;;;4.72;4.43;;;27.10;36.00;;;;;;5033742;28;20240;-88
2022/08/14 08:50:33;;;;;;;5.75;5.10;;;27.40;36.10;;;;;;5021395;28;20213;-85
2022/08/14 08:53:09;;;;;;;4.90;4.57;;;27.50;34.80;;;;;;5027061;28;20184;-87
2022/08/14 08:55:41;;;;;;;4.97;4.68;;;27.60;34.70;;;;;;5041617;28;20683;-88
2022/08/14 08:58:16;;;;;;;4.82;4.43;;;27.60;34.50;;;;;;5041623;28;20185;-87
2022/08/14 09:00:46;;;;;;;5.30;5.00;;;27.80;34.10;;;;;;5027745;28;20834;-84
2022/08/14 09:03:16;;;;;;;4.60;4.30;;;28.00;33.80;;;;;;5039029;28;20181;-87
2022/08/14 09:05:54;;;;;;;4.80;4.53;;;28.20;33.30;;;;;;5041263;28;20295;-87
2022/08/14 09:08:23;;;;;;;8.15;5.18;;;28.40;33.30;;;;;;5041049;28;20195;-85
2022/08/14 09:10:49;;;;;;;5.22;4.72;;;28.50;33.30;;;;;;5033306;28;20191;-86
2022/08/14 09:13:15;;;;;;;4.97;4.70;;;28.60;32.50;;;;;;5040473;28;20205;-89
2022/08/14 09:15:44;;;;;;;4.75;4.45;;;28.70;31.90;;;;;;5027561;28;20194;-86
2022/08/14 09:18:12;;;;;;;4.47;4.28;;;28.80;32.10;;;;;;5042268;28;20204;-84
2022/08/14 09:20:40;;;;;;;4.50;4.20;;;28.90;31.70;;;;;;5034945;28;20211;-86
2022/08/14 09:23:07;;;;;;;4.55;4.22;;;29.20;31.00;;;;;;5046832;28;20211;-88
2022/08/14 09:25:33;;;;;;;4.68;4.38;;;29.50;30.00;;;;;;5052765;28;20210;-90
2022/08/14 09:27:59;;;;;;;4.93;4.53;;;29.70;29.20;;;;;;5057418;28;20171;-94
2022/08/14 09:30:25;;;;;;;4.72;4.32;;;29.80;29.70;;;;;;5049702;28;20704;-86
2022/08/14 09:33:01;;;;;;;4.55;4.13;;;29.90;29.60;;;;;;5033709;28;20279;-86
2022/08/14 09:35:46;;;;;;;5.10;4.70;;;29.80;29.40;;;;;;5039309;28;20188;-88
2022/08/14 09:38:53;;;;;;;4.78;4.47;;;29.70;29.50;;;;;;5030490;28;20203;-86
2022/08/14 09:41:27;;;;;;;4.95;4.55;;;29.90;29.50;;;;;;5033084;28;20225;-87
2022/08/14 09:44:17;;;;;;;4.88;4.57;;;30.20;29.30;;;;;;5036701;28;20176;-86
2022/08/14 09:46:54;;;;;;;4.70;4.45;;;30.40;28.40;;;;;;5038218;28;20584;-86
2022/08/14 09:49:35;;;;;;;9.43;5.22;;;30.50;28.40;;;;;;5028776;28;20247;-90
2022/08/14 09:52:11;;;;;;;4.55;4.25;;;30.60;28.60;;;;;;5029320;28;20540;-88
2022/08/14 09:54:38;;;;;;;4.70;4.40;;;30.70;27.70;;;;;;5019439;28;20181;-88
2022/08/14 09:57:05;;;;;;;4.78;4.38;;;30.90;26.90;;;;;;5030954;28;20187;-85
2022/08/14 09:59:46;;;;;;;4.57;4.38;;;31.10;27.00;;;;;;5027818;28;20220;-89
2022/08/14 10:02:38;;;;;;;4.90;4.60;;;31.30;26.90;;;;;;5034931;28;20183;-86
2022/08/14 10:05:06;;;;;;;5.03;4.63;;;31.50;26.80;;;;;;5017003;28;20197;-87
2022/08/14 10:07:49;;;;;;;5.05;4.75;;;31.80;26.10;;;;;;5017173;28;20176;-88
2022/08/14 10:10:36;;;;;;;5.20;4.90;;;31.80;25.80;;;;;;5027917;28;20374;-86
2022/08/14 10:13:05;;;;;;;5.63;5.10;;;32.00;26.10;;;;;;5030763;28;20196;-88
2022/08/14 10:15:32;;;;;;;4.88;4.57;;;32.20;25.80;;;;;;5017431;28;20196;-90
2022/08/14 10:18:13;;;;;;;5.35;5.05;;;32.40;25.70;;;;;;5035978;28;20648;-86
2022/08/14 10:20:43;;;;;;;5.57;5.15;;;32.80;25.40;;;;;;5033289;28;20217;-86
2022/08/14 10:23:17;;;;;;;5.43;5.13;;;33.00;25.70;;;;;;5017139;28;20204;-88
2022/08/14 10:25:46;;;;;;;5.57;5.28;;;32.90;24.60;;;;;;5016566;28;20169;-88
2022/08/14 10:28:15;;;;;;;5.28;4.93;;;32.80;25.00;;;;;;5019538;28;20181;-87
2022/08/14 10:30:42;;;;;;;5.30;5.00;;;32.90;24.00;;;;;;5038043;28;20250;-86
2022/08/14 10:33:08;;;;;;;5.28;4.95;;;33.10;23.90;;;;;;5036671;28;20220;-85
2022/08/14 10:35:43;;;;;;;5.43;5.13;;;33.20;24.10;;;;;;5041855;28;20176;-86
2022/08/14 10:38:09;;;;;;;5.90;5.40;;;33.50;24.40;;;;;;5038359;28;20177;-89
2022/08/14 10:40:36;;;;;;;5.68;5.32;;;33.60;24.50;;;;;;5036153;28;20281;-88
2022/08/14 10:43:14;;;;;;;6.13;5.50;;;33.50;24.90;;;;;;5037532;28;20179;-88
2022/08/14 10:45:52;;;;;;;5.70;5.30;;;33.60;24.30;;;;;;5037264;28;20176;-85
2022/08/14 10:48:18;;;;;;;5.60;5.30;;;33.90;23.60;;;;;;5038017;28;20830;-88
2022/08/14 10:50:48;;;;;;;5.85;5.32;;;33.90;23.20;;;;;;5028304;28;20732;-87
2022/08/14 10:53:13;;;;;;;5.60;5.20;;;33.90;22.90;;;;;;5036730;28;20180;-95
2022/08/14 10:55:39;;;;;;;5.38;5.07;;;34.10;23.10;;;;;;5054029;28;20203;-93
2022/08/14 10:58:12;;;;;;;5.57;5.28;;;34.40;22.70;;;;;;5046249;28;20767;-88
2022/08/14 11:00:40;;;;;;;6.30;5.90;;;34.50;22.50;;;;;;5028837;28;20221;-85
2022/08/14 11:03:08;;;;;;;5.32;4.95;;;34.40;22.60;;;;;;5034060;28;20252;-84
2022/08/14 11:05:52;;;;;;;5.30;5.00;;;34.70;22.80;;;;;;5023836;28;20208;-85
2022/08/14 11:08:31;;;;;;;6.00;5.70;;;34.70;22.90;;;;;;5025542;28;20188;-88
2022/08/14 11:11:00;;;;;;;7.55;5.85;;;34.70;22.80;;;;;;5036702;28;20192;-88
2022/08/14 11:13:28;;;;;;;5.70;5.38;;;34.70;21.70;;;;;;5014989;28;20185;-86
2022/08/14 11:15:56;;;;;;;5.10;4.90;;;35.00;21.30;;;;;;5023716;28;20200;-86
2022/08/14 11:18:22;;;;;;;5.80;5.40;;;34.80;20.50;;;;;;5025659;28;20637;-85
2022/08/14 11:20:53;;;;;;;5.82;5.53;;;34.80;21.00;;;;;;5027900;28;20626;-87
2022/08/14 11:23:28;;;;;;;6.38;6.05;;;35.10;22.20;;;;;;5018802;28;20184;-86
2022/08/14 11:25:56;;;;;;;5.80;5.50;;;35.40;21.80;;;;;;5024066;28;20173;-86
2022/08/14 11:28:25;;;;;;;5.30;5.10;;;35.50;21.50;;;;;;5035138;28;20253;-86
2022/08/14 11:30:52;;;;;;;11.93;6.22;;;35.50;20.30;;;;;;5030533;28;20208;-87
2022/08/14 11:33:29;;;;;;;5.78;5.38;;;35.70;19.60;;;;;;5034973;28;20702;-87
2022/08/14 11:35:57;;;;;;;5.30;5.10;;;35.80;19.40;;;;;;5025307;28;20196;-84
2022/08/14 11:38:24;;;;;;;5.32;5.03;;;35.90;18.80;;;;;;5034023;28;20267;-85
2022/08/14 11:40:50;;;;;;;5.32;5.10;;;36.10;19.40;;;;;;5037513;28;20760;-85
2022/08/14 11:43:17;;;;;;;5.45;5.07;;;36.20;19.20;;;;;;5032287;28;20185;-85
2022/08/14 11:45:48;;;;;;;5.72;5.30;;;36.40;18.90;;;;;;5044509;28;20226;-86
2022/08/14 11:48:16;;;;;;;5.90;5.60;;;36.50;18.50;;;;;;5045002;28;20204;-85
2022/08/14 11:50:42;;;;;;;5.68;5.38;;;36.40;18.80;;;;;;5042531;28;20224;-87
2022/08/14 11:53:30;;;;;;;6.00;5.70;;;36.50;18.70;;;;;;5039108;28;20234;-86
2022/08/14 11:56:04;;;;;;;5.68;5.38;;;36.60;18.80;;;;;;5039079;28;20185;-88
2022/08/14 11:58:39;;;;;;;6.47;6.07;;;36.50;18.80;;;;;;5032964;28;20198;-85
2022/08/14 12:01:08;;;;;;;5.22;4.93;;;36.10;18.90;;;;;;5042435;28;20207;-89
2022/08/14 12:03:42;;;;;;;5.63;5.32;;;36.30;19.20;;;;;;5045440;28;20180;-88
2022/08/14 12:06:09;;;;;;;6.03;5.53;;;36.50;19.00;;;;;;5034780;28;20172;-85
2022/08/14 12:08:36;;;;;;;5.70;5.20;;;36.70;18.60;;;;;;5041541;28;20239;-87
2022/08/14 12:11:03;;;;;;;5.50;5.20;;;36.60;18.40;;;;;;5043856;28;20215;-85
2022/08/14 12:13:33;;;;;;;5.70;5.40;;;36.70;18.40;;;;;;5023141;28;20189;-88
2022/08/14 12:16:06;;;;;;;5.88;5.57;;;36.80;18.60;;;;;;5036018;28;20712;-85
2022/08/14 12:18:36;;;;;;;6.10;5.80;;;36.90;18.50;;;;;;5038237;28;20259;-85
2022/08/14 12:21:16;;;;;;;5.63;5.43;;;37.10;18.40;;;;;;5043032;28;20275;-85
2022/08/14 12:23:44;;;;;;;5.70;5.40;;;37.60;18.00;;;;;;5043935;28;20176;-88
2022/08/14 12:26:16;;;;;;;5.80;5.50;;;37.80;18.10;;;;;;5034665;28;20269;-85
2022/08/14 12:28:43;;;;;;;6.10;5.80;;;37.30;18.40;;;;;;5040594;28;20211;-85
2022/08/14 12:31:18;;;;;;;5.57;5.28;;;37.10;19.10;;;;;;5035835;28;20181;-89
2022/08/14 12:33:58;;;;;;;6.18;5.78;;;36.60;19.00;;;;;;5037958;28;20191;-85
2022/08/14 12:36:29;;;;;;;5.78;5.47;;;36.30;19.80;;;;;;5042546;28;20180;-86
2022/08/14 12:38:59;;;;;;;5.38;5.18;;;36.50;19.00;;;;;;5037458;28;20212;-84
2022/08/14 12:41:29;;;;;;;5.78;5.47;;;36.90;18.80;;;;;;5039475;28;20499;-87
2022/08/14 12:44:00;;;;;;;5.78;5.47;;;36.70;18.80;;;;;;5046218;28;20186;-88
2022/08/14 12:46:33;;;;;;;5.97;5.68;;;36.90;18.70;;;;;;5051856;28;20187;-93
2022/08/14 12:49:09;;;;;;;5.90;5.60;;;37.40;18.40;;;;;;5044248;28;20189;-91
2022/08/14 12:51:35;;;;;;;5.90;5.60;;;37.60;18.40;;;;;;5031085;28;20219;-85
2022/08/14 12:54:13;;;;;;;6.40;6.10;;;37.80;18.50;;;;;;5032027;28;20184;-85
2022/08/14 12:56:39;;;;;;;5.57;5.28;;;38.10;18.20;;;;;;5030805;28;20683;-85
2022/08/14 12:59:06;;;;;;;6.38;5.97;;;38.00;18.00;;;;;;5022793;28;20212;-86
2022/08/14 13:01:33;;;;;;;6.25;5.85;;;38.00;17.90;;;;;;5038740;28;20200;-86
2022/08/14 13:04:09;;;;;;;6.13;5.82;;;38.10;17.90;;;;;;5031676;28;20181;-87
2022/08/14 13:06:35;;;;;;;6.68;6.30;;;38.10;17.90;;;;;;5027894;28;20221;-89
2022/08/14 13:09:03;;;;;;;6.50;6.10;;;38.10;17.80;;;;;;5038920;28;20215;-88
2022/08/14 13:11:36;;;;;;;6.38;6.07;;;38.30;17.70;;;;;;5040684;28;20180;-86